sensor_id;sensor_type;location;lat;lon;timestamp;P1;durP1;ratioP1;P2;durP2;ratioP2
22068;SDS011;13887;57.196;-2.100;2024-03-02T00:00:40;12.37;;;11.97;;
22068;SDS011;13887;57.196;-2.100;2024-03-02T00:03:07;12.03;;;11.63;;
22068;SDS011;13887;57.196;-2.100;2024-03-02T00:05:36;12.00;;;11.60;;
22068;SDS011;13887;57.196;-2.100;2024-03-02T00:08:04;12.67;;;12.27;;
22068;SDS011;13887;57.196;-2.100;2024-03-02T00:10:39;12.50;;;12.10;;
22068;SDS011;13887;57.196;-2.100;2024-03-02T00:13:08;13.13;;;12.73;;
22068;SDS011;13887;57.196;-2.100;2024-03-02T00:15:54;13.03;;;12.63;;
22068;SDS011;13887;57.196;-2.100;2024-03-02T00:21:03;13.50;;;13.10;;
22068;SDS011;13887;57.196;-2.100;2024-03-02T00:23:33;13.80;;;13.30;;
22068;SDS011;13887;57.196;-2.100;2024-03-02T00:26:01;13.20;;;12.80;;
22068;SDS011;13887;57.196;-2.100;2024-03-02T00:28:29;13.83;;;13.33;;
22068;SDS011;13887;57.196;-2.100;2024-03-02T00:31:03;12.97;;;12.57;;
22068;SDS011;13887;57.196;-2.100;2024-03-02T00:33:33;12.93;;;12.53;;
22068;SDS011;13887;57.196;-2.100;2024-03-02T00:36:03;13.37;;;12.97;;
22068;SDS011;13887;57.196;-2.100;2024-03-02T00:38:31;13.60;;;13.10;;
22068;SDS011;13887;57.196;-2.100;2024-03-02T00:40:58;13.57;;;13.10;;
22068;SDS011;13887;57.196;-2.100;2024-03-02T00:46:34;13.17;;;12.77;;
22068;SDS011;13887;57.196;-2.100;2024-03-02T00:51:50;13.67;;;13.17;;
22068;SDS011;13887;57.196;-2.100;2024-03-02T00:54:25;12.53;;;12.13;;
22068;SDS011;13887;57.196;-2.100;2024-03-02T00:56:53;13.20;;;12.80;;
22068;SDS011;13887;57.196;-2.100;2024-03-02T00:59:23;12.67;;;12.27;;
22068;SDS011;13887;57.196;-2.100;2024-03-02T01:01:50;12.97;;;12.57;;
22068;SDS011;13887;57.196;-2.100;2024-03-02T01:04:18;12.90;;;12.50;;
22068;SDS011;13887;57.196;-2.100;2024-03-02T01:06:46;12.90;;;12.50;;
22068;SDS011;13887;57.196;-2.100;2024-03-02T01:09:13;13.23;;;12.83;;
22068;SDS011;13887;57.196;-2.100;2024-03-02T01:11:41;12.97;;;12.57;;
22068;SDS011;13887;57.196;-2.100;2024-03-02T01:14:08;13.20;;;12.80;;
22068;SDS011;13887;57.196;-2.100;2024-03-02T01:16:35;13.50;;;13.07;;
22068;SDS011;13887;57.196;-2.100;2024-03-02T01:19:02;13.20;;;12.80;;
22068;SDS011;13887;57.196;-2.100;2024-03-02T01:21:31;13.80;;;13.30;;
22068;SDS011;13887;57.196;-2.100;2024-03-02T01:23:58;13.00;;;12.60;;
22068;SDS011;13887;57.196;-2.100;2024-03-02T01:26:25;13.13;;;12.73;;
22068;SDS011;13887;57.196;-2.100;2024-03-02T01:28:52;13.17;;;12.77;;
22068;SDS011;13887;57.196;-2.100;2024-03-02T01:31:19;12.93;;;12.53;;
22068;SDS011;13887;57.196;-2.100;2024-03-02T01:33:47;13.63;;;13.20;;
22068;SDS011;13887;57.196;-2.100;2024-03-02T01:36:14;13.27;;;12.87;;
22068;SDS011;13887;57.196;-2.100;2024-03-02T01:38:41;13.17;;;12.77;;
22068;SDS011;13887;57.196;-2.100;2024-03-02T01:41:08;13.60;;;13.17;;
22068;SDS011;13887;57.196;-2.100;2024-03-02T01:43:36;13.13;;;12.73;;
22068;SDS011;13887;57.196;-2.100;2024-03-02T01:46:07;13.10;;;12.70;;
22068;SDS011;13887;57.196;-2.100;2024-03-02T01:48:34;13.03;;;12.63;;
22068;SDS011;13887;57.196;-2.100;2024-03-02T01:51:01;13.70;;;13.20;;
22068;SDS011;13887;57.196;-2.100;2024-03-02T01:53:29;13.40;;;13.00;;
22068;SDS011;13887;57.196;-2.100;2024-03-02T01:55:56;13.13;;;12.73;;
22068;SDS011;13887;57.196;-2.100;2024-03-02T01:58:23;13.00;;;12.60;;
22068;SDS011;13887;57.196;-2.100;2024-03-02T02:00:50;12.80;;;12.40;;
22068;SDS011;13887;57.196;-2.100;2024-03-02T02:03:18;13.00;;;12.60;;
22068;SDS011;13887;57.196;-2.100;2024-03-02T02:05:45;13.07;;;12.67;;
22068;SDS011;13887;57.196;-2.100;2024-03-02T02:08:14;13.10;;;12.70;;
22068;SDS011;13887;57.196;-2.100;2024-03-02T02:10:41;13.03;;;12.63;;
22068;SDS011;13887;57.196;-2.100;2024-03-02T02:13:09;13.30;;;12.90;;
22068;SDS011;13887;57.196;-2.100;2024-03-02T02:15:36;13.17;;;12.77;;
22068;SDS011;13887;57.196;-2.100;2024-03-02T02:18:04;13.20;;;12.80;;
22068;SDS011;13887;57.196;-2.100;2024-03-02T02:20:31;13.70;;;13.20;;
22068;SDS011;13887;57.196;-2.100;2024-03-02T02:25:27;13.20;;;12.80;;
22068;SDS011;13887;57.196;-2.100;2024-03-02T02:27:55;13.47;;;13.07;;
22068;SDS011;13887;57.196;-2.100;2024-03-02T02:30:25;13.33;;;12.93;;
22068;SDS011;13887;57.196;-2.100;2024-03-02T02:32:57;13.30;;;12.90;;
22068;SDS011;13887;57.196;-2.100;2024-03-02T02:35:25;12.77;;;12.37;;
22068;SDS011;13887;57.196;-2.100;2024-03-02T02:37:52;12.80;;;12.40;;
22068;SDS011;13887;57.196;-2.100;2024-03-02T02:40:21;12.70;;;12.30;;
22068;SDS011;13887;57.196;-2.100;2024-03-02T02:42:48;13.40;;;13.00;;
22068;SDS011;13887;57.196;-2.100;2024-03-02T02:45:16;13.80;;;13.30;;
22068;SDS011;13887;57.196;-2.100;2024-03-02T02:47:43;13.40;;;13.00;;
22068;SDS011;13887;57.196;-2.100;2024-03-02T02:50:11;13.33;;;12.93;;
22068;SDS011;13887;57.196;-2.100;2024-03-02T02:52:40;13.37;;;12.97;;
22068;SDS011;13887;57.196;-2.100;2024-03-02T02:55:08;13.40;;;13.00;;
22068;SDS011;13887;57.196;-2.100;2024-03-02T02:57:38;13.53;;;13.07;;
22068;SDS011;13887;57.196;-2.100;2024-03-02T03:00:07;13.27;;;12.87;;
22068;SDS011;13887;57.196;-2.100;2024-03-02T03:02:47;12.90;;;12.50;;
22068;SDS011;13887;57.196;-2.100;2024-03-02T03:05:17;13.20;;;12.80;;
22068;SDS011;13887;57.196;-2.100;2024-03-02T03:07:45;13.27;;;12.87;;
22068;SDS011;13887;57.196;-2.100;2024-03-02T03:10:13;13.03;;;12.63;;
22068;SDS011;13887;57.196;-2.100;2024-03-02T03:12:41;12.83;;;12.43;;
22068;SDS011;13887;57.196;-2.100;2024-03-02T03:15:11;12.97;;;12.57;;
22068;SDS011;13887;57.196;-2.100;2024-03-02T03:17:38;12.90;;;12.50;;
22068;SDS011;13887;57.196;-2.100;2024-03-02T03:20:06;12.93;;;12.53;;
22068;SDS011;13887;57.196;-2.100;2024-03-02T03:22:37;13.43;;;13.00;;
22068;SDS011;13887;57.196;-2.100;2024-03-02T03:25:04;13.10;;;12.70;;
22068;SDS011;13887;57.196;-2.100;2024-03-02T03:27:32;13.10;;;12.70;;
22068;SDS011;13887;57.196;-2.100;2024-03-02T03:29:59;12.80;;;12.40;;
22068;SDS011;13887;57.196;-2.100;2024-03-02T03:32:27;13.07;;;12.67;;
22068;SDS011;13887;57.196;-2.100;2024-03-02T03:34:55;13.00;;;12.60;;
22068;SDS011;13887;57.196;-2.100;2024-03-02T03:37:22;12.87;;;12.47;;
22068;SDS011;13887;57.196;-2.100;2024-03-02T03:39:49;13.27;;;12.87;;
22068;SDS011;13887;57.196;-2.100;2024-03-02T03:42:16;13.17;;;12.77;;
22068;SDS011;13887;57.196;-2.100;2024-03-02T03:44:44;13.23;;;12.83;;
22068;SDS011;13887;57.196;-2.100;2024-03-02T03:47:11;13.07;;;12.67;;
22068;SDS011;13887;57.196;-2.100;2024-03-02T03:49:38;13.33;;;12.90;;
22068;SDS011;13887;57.196;-2.100;2024-03-02T03:52:05;13.43;;;13.00;;
22068;SDS011;13887;57.196;-2.100;2024-03-02T03:54:33;13.00;;;12.60;;
22068;SDS011;13887;57.196;-2.100;2024-03-02T03:57:00;13.67;;;13.17;;
22068;SDS011;13887;57.196;-2.100;2024-03-02T03:59:28;13.50;;;13.00;;
22068;SDS011;13887;57.196;-2.100;2024-03-02T04:01:55;13.10;;;12.70;;
22068;SDS011;13887;57.196;-2.100;2024-03-02T04:04:22;13.10;;;12.70;;
22068;SDS011;13887;57.196;-2.100;2024-03-02T04:06:49;12.97;;;12.57;;
22068;SDS011;13887;57.196;-2.100;2024-03-02T04:09:17;12.77;;;12.37;;
22068;SDS011;13887;57.196;-2.100;2024-03-02T04:11:44;13.00;;;12.60;;
22068;SDS011;13887;57.196;-2.100;2024-03-02T04:14:11;13.30;;;12.90;;
22068;SDS011;13887;57.196;-2.100;2024-03-02T04:16:39;12.77;;;12.37;;
22068;SDS011;13887;57.196;-2.100;2024-03-02T04:19:06;13.20;;;12.80;;
22068;SDS011;13887;57.196;-2.100;2024-03-02T04:21:33;13.00;;;12.60;;
22068;SDS011;13887;57.196;-2.100;2024-03-02T04:24:01;12.60;;;12.20;;
22068;SDS011;13887;57.196;-2.100;2024-03-02T04:26:28;13.23;;;12.83;;
22068;SDS011;13887;57.196;-2.100;2024-03-02T04:28:55;12.90;;;12.50;;
22068;SDS011;13887;57.196;-2.100;2024-03-02T04:31:22;12.90;;;12.50;;
22068;SDS011;13887;57.196;-2.100;2024-03-02T04:33:49;12.90;;;12.50;;
22068;SDS011;13887;57.196;-2.100;2024-03-02T04:36:17;12.93;;;12.53;;
22068;SDS011;13887;57.196;-2.100;2024-03-02T04:38:44;13.00;;;12.60;;
22068;SDS011;13887;57.196;-2.100;2024-03-02T04:41:11;12.50;;;12.10;;
22068;SDS011;13887;57.196;-2.100;2024-03-02T04:43:39;12.60;;;12.20;;
22068;SDS011;13887;57.196;-2.100;2024-03-02T04:46:06;12.73;;;12.33;;
22068;SDS011;13887;57.196;-2.100;2024-03-02T04:48:34;12.50;;;12.10;;
22068;SDS011;13887;57.196;-2.100;2024-03-02T04:51:01;12.80;;;12.40;;
22068;SDS011;13887;57.196;-2.100;2024-03-02T04:53:29;12.77;;;12.37;;
22068;SDS011;13887;57.196;-2.100;2024-03-02T04:55:56;12.90;;;12.50;;
22068;SDS011;13887;57.196;-2.100;2024-03-02T04:58:52;12.63;;;12.23;;
22068;SDS011;13887;57.196;-2.100;2024-03-02T05:01:19;12.90;;;12.50;;
22068;SDS011;13887;57.196;-2.100;2024-03-02T05:03:46;13.00;;;12.60;;
22068;SDS011;13887;57.196;-2.100;2024-03-02T05:06:14;13.33;;;12.93;;
22068;SDS011;13887;57.196;-2.100;2024-03-02T05:08:41;12.90;;;12.50;;
22068;SDS011;13887;57.196;-2.100;2024-03-02T05:11:08;12.80;;;12.40;;
22068;SDS011;13887;57.196;-2.100;2024-03-02T05:13:54;12.83;;;12.43;;
22068;SDS011;13887;57.196;-2.100;2024-03-02T05:16:21;12.63;;;12.23;;
22068;SDS011;13887;57.196;-2.100;2024-03-02T05:18:49;12.73;;;12.33;;
22068;SDS011;13887;57.196;-2.100;2024-03-02T05:21:16;12.60;;;12.20;;
22068;SDS011;13887;57.196;-2.100;2024-03-02T05:23:43;12.60;;;12.20;;
22068;SDS011;13887;57.196;-2.100;2024-03-02T05:26:11;12.70;;;12.30;;
22068;SDS011;13887;57.196;-2.100;2024-03-02T05:28:41;12.77;;;12.37;;
22068;SDS011;13887;57.196;-2.100;2024-03-02T05:31:11;12.73;;;12.33;;
22068;SDS011;13887;57.196;-2.100;2024-03-02T05:33:41;12.80;;;12.40;;
22068;SDS011;13887;57.196;-2.100;2024-03-02T05:36:09;12.80;;;12.40;;
22068;SDS011;13887;57.196;-2.100;2024-03-02T05:38:37;12.97;;;12.57;;
22068;SDS011;13887;57.196;-2.100;2024-03-02T05:41:04;12.60;;;12.20;;
22068;SDS011;13887;57.196;-2.100;2024-03-02T05:43:32;12.80;;;12.40;;
22068;SDS011;13887;57.196;-2.100;2024-03-02T05:45:59;12.63;;;12.23;;
22068;SDS011;13887;57.196;-2.100;2024-03-02T05:48:26;12.80;;;12.40;;
22068;SDS011;13887;57.196;-2.100;2024-03-02T05:50:54;12.80;;;12.40;;
22068;SDS011;13887;57.196;-2.100;2024-03-02T05:53:21;12.93;;;12.53;;
22068;SDS011;13887;57.196;-2.100;2024-03-02T05:55:48;12.30;;;11.90;;
22068;SDS011;13887;57.196;-2.100;2024-03-02T05:58:20;13.00;;;12.60;;
22068;SDS011;13887;57.196;-2.100;2024-03-02T06:00:59;12.87;;;12.47;;
22068;SDS011;13887;57.196;-2.100;2024-03-02T06:03:26;12.40;;;12.00;;
22068;SDS011;13887;57.196;-2.100;2024-03-02T06:05:55;12.47;;;12.07;;
22068;SDS011;13887;57.196;-2.100;2024-03-02T06:08:22;12.83;;;12.43;;
22068;SDS011;13887;57.196;-2.100;2024-03-02T06:10:49;13.10;;;12.70;;
22068;SDS011;13887;57.196;-2.100;2024-03-02T06:13:17;13.07;;;12.67;;
22068;SDS011;13887;57.196;-2.100;2024-03-02T06:15:44;12.90;;;12.50;;
22068;SDS011;13887;57.196;-2.100;2024-03-02T06:18:11;13.20;;;12.80;;
22068;SDS011;13887;57.196;-2.100;2024-03-02T06:20:38;12.97;;;12.57;;
22068;SDS011;13887;57.196;-2.100;2024-03-02T06:23:06;13.10;;;12.70;;
22068;SDS011;13887;57.196;-2.100;2024-03-02T06:25:33;13.03;;;12.63;;
22068;SDS011;13887;57.196;-2.100;2024-03-02T06:28:00;13.20;;;12.80;;
22068;SDS011;13887;57.196;-2.100;2024-03-02T06:30:28;13.67;;;13.17;;
22068;SDS011;13887;57.196;-2.100;2024-03-02T06:32:55;13.03;;;12.63;;
22068;SDS011;13887;57.196;-2.100;2024-03-02T06:35:22;13.60;;;13.10;;
22068;SDS011;13887;57.196;-2.100;2024-03-02T06:37:49;13.10;;;12.70;;
22068;SDS011;13887;57.196;-2.100;2024-03-02T06:40:17;12.80;;;12.40;;
22068;SDS011;13887;57.196;-2.100;2024-03-02T06:42:45;13.07;;;12.67;;
22068;SDS011;13887;57.196;-2.100;2024-03-02T06:45:13;12.80;;;12.40;;
22068;SDS011;13887;57.196;-2.100;2024-03-02T06:47:40;12.73;;;12.33;;
22068;SDS011;13887;57.196;-2.100;2024-03-02T06:50:07;12.50;;;12.10;;
22068;SDS011;13887;57.196;-2.100;2024-03-02T06:52:36;12.53;;;12.13;;
22068;SDS011;13887;57.196;-2.100;2024-03-02T06:55:03;12.43;;;12.03;;
22068;SDS011;13887;57.196;-2.100;2024-03-02T06:57:31;12.87;;;12.47;;
22068;SDS011;13887;57.196;-2.100;2024-03-02T06:59:58;12.93;;;12.53;;
22068;SDS011;13887;57.196;-2.100;2024-03-02T07:02:25;12.93;;;12.53;;
22068;SDS011;13887;57.196;-2.100;2024-03-02T07:04:53;13.03;;;12.63;;
22068;SDS011;13887;57.196;-2.100;2024-03-02T07:07:21;12.60;;;12.20;;
22068;SDS011;13887;57.196;-2.100;2024-03-02T07:09:48;13.40;;;13.00;;
22068;SDS011;13887;57.196;-2.100;2024-03-02T07:12:15;12.70;;;12.30;;
22068;SDS011;13887;57.196;-2.100;2024-03-02T07:14:42;12.40;;;12.00;;
22068;SDS011;13887;57.196;-2.100;2024-03-02T07:17:36;13.20;;;12.80;;
22068;SDS011;13887;57.196;-2.100;2024-03-02T07:20:04;12.83;;;12.43;;
22068;SDS011;13887;57.196;-2.100;2024-03-02T07:22:33;12.90;;;12.50;;
22068;SDS011;13887;57.196;-2.100;2024-03-02T07:25:00;13.47;;;13.00;;
22068;SDS011;13887;57.196;-2.100;2024-03-02T07:27:27;13.10;;;12.70;;
22068;SDS011;13887;57.196;-2.100;2024-03-02T07:29:55;12.80;;;12.40;;
22068;SDS011;13887;57.196;-2.100;2024-03-02T07:32:22;13.07;;;12.67;;
22068;SDS011;13887;57.196;-2.100;2024-03-02T07:34:49;13.17;;;12.77;;
22068;SDS011;13887;57.196;-2.100;2024-03-02T07:37:17;12.57;;;12.17;;
22068;SDS011;13887;57.196;-2.100;2024-03-02T07:39:45;12.73;;;12.33;;
22068;SDS011;13887;57.196;-2.100;2024-03-02T07:42:13;13.07;;;12.67;;
22068;SDS011;13887;57.196;-2.100;2024-03-02T07:44:41;12.80;;;12.40;;
22068;SDS011;13887;57.196;-2.100;2024-03-02T07:47:08;12.83;;;12.43;;
22068;SDS011;13887;57.196;-2.100;2024-03-02T07:49:35;12.57;;;12.17;;
22068;SDS011;13887;57.196;-2.100;2024-03-02T07:52:02;12.53;;;12.13;;
22068;SDS011;13887;57.196;-2.100;2024-03-02T07:54:30;12.20;;;11.80;;
22068;SDS011;13887;57.196;-2.100;2024-03-02T07:56:57;12.80;;;12.40;;
22068;SDS011;13887;57.196;-2.100;2024-03-02T07:59:25;12.87;;;12.47;;
22068;SDS011;13887;57.196;-2.100;2024-03-02T08:01:52;13.37;;;12.97;;
22068;SDS011;13887;57.196;-2.100;2024-03-02T08:04:22;12.93;;;12.53;;
22068;SDS011;13887;57.196;-2.100;2024-03-02T08:06:49;13.00;;;12.60;;
22068;SDS011;13887;57.196;-2.100;2024-03-02T08:09:17;12.80;;;12.40;;
22068;SDS011;13887;57.196;-2.100;2024-03-02T08:11:44;12.77;;;12.37;;
22068;SDS011;13887;57.196;-2.100;2024-03-02T08:14:11;12.87;;;12.47;;
22068;SDS011;13887;57.196;-2.100;2024-03-02T08:16:38;12.80;;;12.40;;
22068;SDS011;13887;57.196;-2.100;2024-03-02T08:19:07;12.57;;;12.17;;
22068;SDS011;13887;57.196;-2.100;2024-03-02T08:21:35;12.77;;;12.37;;
22068;SDS011;13887;57.196;-2.100;2024-03-02T08:24:03;12.60;;;12.20;;
22068;SDS011;13887;57.196;-2.100;2024-03-02T08:26:30;12.27;;;11.87;;
22068;SDS011;13887;57.196;-2.100;2024-03-02T08:28:58;12.33;;;11.93;;
22068;SDS011;13887;57.196;-2.100;2024-03-02T08:31:28;12.07;;;11.67;;
22068;SDS011;13887;57.196;-2.100;2024-03-02T08:33:55;12.60;;;12.20;;
22068;SDS011;13887;57.196;-2.100;2024-03-02T08:36:23;13.07;;;12.67;;
22068;SDS011;13887;57.196;-2.100;2024-03-02T08:38:51;12.40;;;12.00;;
22068;SDS011;13887;57.196;-2.100;2024-03-02T08:41:18;13.17;;;12.77;;
22068;SDS011;13887;57.196;-2.100;2024-03-02T08:43:45;13.17;;;12.77;;
22068;SDS011;13887;57.196;-2.100;2024-03-02T08:46:13;12.97;;;12.57;;
22068;SDS011;13887;57.196;-2.100;2024-03-02T08:48:40;13.03;;;12.63;;
22068;SDS011;13887;57.196;-2.100;2024-03-02T08:51:07;12.93;;;12.53;;
22068;SDS011;13887;57.196;-2.100;2024-03-02T08:53:37;12.70;;;12.30;;
22068;SDS011;13887;57.196;-2.100;2024-03-02T08:56:05;12.37;;;11.97;;
22068;SDS011;13887;57.196;-2.100;2024-03-02T08:58:32;12.83;;;12.43;;
22068;SDS011;13887;57.196;-2.100;2024-03-02T09:01:00;12.67;;;12.27;;
22068;SDS011;13887;57.196;-2.100;2024-03-02T09:03:27;12.67;;;12.27;;
22068;SDS011;13887;57.196;-2.100;2024-03-02T09:05:55;12.50;;;12.10;;
22068;SDS011;13887;57.196;-2.100;2024-03-02T09:08:23;12.50;;;12.10;;
22068;SDS011;13887;57.196;-2.100;2024-03-02T09:10:50;12.60;;;12.20;;
22068;SDS011;13887;57.196;-2.100;2024-03-02T09:13:17;12.77;;;12.37;;
22068;SDS011;13887;57.196;-2.100;2024-03-02T09:15:44;13.23;;;12.83;;
22068;SDS011;13887;57.196;-2.100;2024-03-02T09:18:12;13.17;;;12.77;;
22068;SDS011;13887;57.196;-2.100;2024-03-02T09:20:40;12.97;;;12.57;;
22068;SDS011;13887;57.196;-2.100;2024-03-02T09:23:07;12.43;;;12.03;;
22068;SDS011;13887;57.196;-2.100;2024-03-02T09:25:34;12.67;;;12.27;;
22068;SDS011;13887;57.196;-2.100;2024-03-02T09:28:03;12.60;;;12.20;;
22068;SDS011;13887;57.196;-2.100;2024-03-02T09:30:30;12.63;;;12.23;;
22068;SDS011;13887;57.196;-2.100;2024-03-02T09:32:57;13.00;;;12.60;;
22068;SDS011;13887;57.196;-2.100;2024-03-02T09:35:28;12.97;;;12.57;;
22068;SDS011;13887;57.196;-2.100;2024-03-02T09:37:55;12.87;;;12.47;;
22068;SDS011;13887;57.196;-2.100;2024-03-02T09:40:22;12.57;;;12.17;;
22068;SDS011;13887;57.196;-2.100;2024-03-02T09:42:50;12.93;;;12.53;;
22068;SDS011;13887;57.196;-2.100;2024-03-02T09:45:21;12.60;;;12.20;;
22068;SDS011;13887;57.196;-2.100;2024-03-02T09:47:50;12.77;;;12.37;;
22068;SDS011;13887;57.196;-2.100;2024-03-02T09:50:18;12.30;;;11.90;;
22068;SDS011;13887;57.196;-2.100;2024-03-02T09:52:48;13.03;;;12.63;;
22068;SDS011;13887;57.196;-2.100;2024-03-02T09:55:17;12.70;;;12.30;;
22068;SDS011;13887;57.196;-2.100;2024-03-02T09:57:46;12.80;;;12.40;;
22068;SDS011;13887;57.196;-2.100;2024-03-02T10:00:15;12.77;;;12.37;;
22068;SDS011;13887;57.196;-2.100;2024-03-02T10:02:42;12.80;;;12.40;;
22068;SDS011;13887;57.196;-2.100;2024-03-02T10:05:10;13.03;;;12.63;;
22068;SDS011;13887;57.196;-2.100;2024-03-02T10:07:39;12.93;;;12.53;;
22068;SDS011;13887;57.196;-2.100;2024-03-02T10:10:13;12.90;;;12.50;;
22068;SDS011;13887;57.196;-2.100;2024-03-02T10:12:41;12.73;;;12.33;;
22068;SDS011;13887;57.196;-2.100;2024-03-02T10:15:08;12.90;;;12.50;;
22068;SDS011;13887;57.196;-2.100;2024-03-02T10:17:36;12.57;;;12.17;;
22068;SDS011;13887;57.196;-2.100;2024-03-02T10:20:22;12.50;;;12.10;;
22068;SDS011;13887;57.196;-2.100;2024-03-02T10:22:51;12.67;;;12.27;;
22068;SDS011;13887;57.196;-2.100;2024-03-02T10:25:33;12.60;;;12.20;;
22068;SDS011;13887;57.196;-2.100;2024-03-02T10:28:16;12.33;;;11.93;;
22068;SDS011;13887;57.196;-2.100;2024-03-02T10:30:47;12.80;;;12.40;;
22068;SDS011;13887;57.196;-2.100;2024-03-02T10:33:17;12.53;;;12.13;;
22068;SDS011;13887;57.196;-2.100;2024-03-02T10:35:44;12.50;;;12.10;;
22068;SDS011;13887;57.196;-2.100;2024-03-02T10:38:11;12.13;;;11.73;;
22068;SDS011;13887;57.196;-2.100;2024-03-02T10:40:39;12.03;;;11.63;;
22068;SDS011;13887;57.196;-2.100;2024-03-02T10:43:06;12.30;;;11.90;;
22068;SDS011;13887;57.196;-2.100;2024-03-02T10:45:34;12.13;;;11.73;;
22068;SDS011;13887;57.196;-2.100;2024-03-02T10:48:02;12.27;;;11.87;;
22068;SDS011;13887;57.196;-2.100;2024-03-02T10:50:29;12.10;;;11.70;;
22068;SDS011;13887;57.196;-2.100;2024-03-02T10:52:57;12.10;;;11.70;;
22068;SDS011;13887;57.196;-2.100;2024-03-02T10:55:27;12.13;;;11.73;;
22068;SDS011;13887;57.196;-2.100;2024-03-02T10:57:54;12.10;;;11.70;;
22068;SDS011;13887;57.196;-2.100;2024-03-02T11:00:24;12.60;;;12.20;;
22068;SDS011;13887;57.196;-2.100;2024-03-02T11:02:57;11.80;;;11.40;;
22068;SDS011;13887;57.196;-2.100;2024-03-02T11:05:34;12.40;;;12.00;;
22068;SDS011;13887;57.196;-2.100;2024-03-02T11:08:06;12.03;;;11.63;;
22068;SDS011;13887;57.196;-2.100;2024-03-02T11:10:37;12.10;;;11.70;;
22068;SDS011;13887;57.196;-2.100;2024-03-02T11:13:09;12.10;;;11.70;;
22068;SDS011;13887;57.196;-2.100;2024-03-02T11:15:39;12.40;;;12.00;;
22068;SDS011;13887;57.196;-2.100;2024-03-02T11:18:10;12.40;;;12.00;;
22068;SDS011;13887;57.196;-2.100;2024-03-02T11:20:39;12.00;;;11.60;;
22068;SDS011;13887;57.196;-2.100;2024-03-02T11:23:08;11.90;;;11.50;;
22068;SDS011;13887;57.196;-2.100;2024-03-02T11:25:36;12.33;;;11.93;;
22068;SDS011;13887;57.196;-2.100;2024-03-02T11:28:05;12.50;;;12.10;;
22068;SDS011;13887;57.196;-2.100;2024-03-02T11:33:02;12.37;;;11.97;;
22068;SDS011;13887;57.196;-2.100;2024-03-02T11:35:43;12.80;;;12.40;;
22068;SDS011;13887;57.196;-2.100;2024-03-02T11:38:15;12.20;;;11.80;;
22068;SDS011;13887;57.196;-2.100;2024-03-02T11:40:44;13.10;;;12.70;;
22068;SDS011;13887;57.196;-2.100;2024-03-02T11:43:12;12.47;;;12.07;;
22068;SDS011;13887;57.196;-2.100;2024-03-02T11:45:39;12.50;;;12.10;;
22068;SDS011;13887;57.196;-2.100;2024-03-02T11:48:13;12.20;;;11.80;;
22068;SDS011;13887;57.196;-2.100;2024-03-02T11:50:42;12.00;;;11.60;;
22068;SDS011;13887;57.196;-2.100;2024-03-02T11:53:19;12.20;;;11.80;;
22068;SDS011;13887;57.196;-2.100;2024-03-02T11:55:47;12.10;;;11.70;;
22068;SDS011;13887;57.196;-2.100;2024-03-02T11:58:16;12.10;;;11.70;;
22068;SDS011;13887;57.196;-2.100;2024-03-02T12:00:53;11.93;;;11.53;;
22068;SDS011;13887;57.196;-2.100;2024-03-02T12:03:22;11.97;;;11.57;;
22068;SDS011;13887;57.196;-2.100;2024-03-02T12:05:53;11.80;;;11.40;;
22068;SDS011;13887;57.196;-2.100;2024-03-02T12:08:21;11.80;;;11.40;;
22068;SDS011;13887;57.196;-2.100;2024-03-02T12:10:55;11.57;;;11.17;;
22068;SDS011;13887;57.196;-2.100;2024-03-02T12:13:24;11.67;;;11.27;;
22068;SDS011;13887;57.196;-2.100;2024-03-02T12:15:54;11.97;;;11.57;;
22068;SDS011;13887;57.196;-2.100;2024-03-02T12:18:25;12.20;;;11.80;;
22068;SDS011;13887;57.196;-2.100;2024-03-02T12:20:53;11.93;;;11.53;;
22068;SDS011;13887;57.196;-2.100;2024-03-02T12:23:24;11.63;;;11.23;;
22068;SDS011;13887;57.196;-2.100;2024-03-02T12:25:52;12.00;;;11.60;;
22068;SDS011;13887;57.196;-2.100;2024-03-02T12:28:20;12.10;;;11.70;;
22068;SDS011;13887;57.196;-2.100;2024-03-02T12:30:47;12.23;;;11.83;;
22068;SDS011;13887;57.196;-2.100;2024-03-02T12:33:16;11.53;;;11.13;;
22068;SDS011;13887;57.196;-2.100;2024-03-02T12:35:44;11.50;;;11.10;;
22068;SDS011;13887;57.196;-2.100;2024-03-02T12:38:11;12.50;;;12.10;;
22068;SDS011;13887;57.196;-2.100;2024-03-02T12:40:38;12.40;;;12.00;;
22068;SDS011;13887;57.196;-2.100;2024-03-02T12:43:06;12.10;;;11.70;;
22068;SDS011;13887;57.196;-2.100;2024-03-02T12:45:37;12.30;;;11.90;;
22068;SDS011;13887;57.196;-2.100;2024-03-02T12:48:04;12.20;;;11.80;;
22068;SDS011;13887;57.196;-2.100;2024-03-02T12:50:32;12.20;;;11.80;;
22068;SDS011;13887;57.196;-2.100;2024-03-02T12:53:00;12.53;;;12.13;;
22068;SDS011;13887;57.196;-2.100;2024-03-02T12:55:28;12.73;;;12.33;;
22068;SDS011;13887;57.196;-2.100;2024-03-02T12:57:56;12.70;;;12.30;;
22068;SDS011;13887;57.196;-2.100;2024-03-02T13:00:26;12.83;;;12.43;;
22068;SDS011;13887;57.196;-2.100;2024-03-02T13:02:53;12.73;;;12.33;;
22068;SDS011;13887;57.196;-2.100;2024-03-02T13:05:32;12.90;;;12.50;;
22068;SDS011;13887;57.196;-2.100;2024-03-02T13:07:59;13.07;;;12.67;;
22068;SDS011;13887;57.196;-2.100;2024-03-02T13:10:27;12.93;;;12.53;;
22068;SDS011;13887;57.196;-2.100;2024-03-02T13:12:55;12.80;;;12.40;;
22068;SDS011;13887;57.196;-2.100;2024-03-02T13:15:23;13.33;;;12.93;;
22068;SDS011;13887;57.196;-2.100;2024-03-02T13:17:52;12.77;;;12.37;;
22068;SDS011;13887;57.196;-2.100;2024-03-02T13:20:20;12.33;;;11.93;;
22068;SDS011;13887;57.196;-2.100;2024-03-02T13:22:49;12.80;;;12.40;;
22068;SDS011;13887;57.196;-2.100;2024-03-02T13:25:16;12.40;;;12.00;;
22068;SDS011;13887;57.196;-2.100;2024-03-02T13:27:44;12.23;;;11.83;;
22068;SDS011;13887;57.196;-2.100;2024-03-02T13:30:11;12.57;;;12.17;;
22068;SDS011;13887;57.196;-2.100;2024-03-02T13:32:38;12.80;;;12.40;;
22068;SDS011;13887;57.196;-2.100;2024-03-02T13:35:06;12.63;;;12.23;;
22068;SDS011;13887;57.196;-2.100;2024-03-02T13:37:33;12.17;;;11.77;;
22068;SDS011;13887;57.196;-2.100;2024-03-02T13:40:01;12.50;;;12.10;;
22068;SDS011;13887;57.196;-2.100;2024-03-02T13:42:28;12.50;;;12.10;;
22068;SDS011;13887;57.196;-2.100;2024-03-02T13:44:56;12.50;;;12.10;;
22068;SDS011;13887;57.196;-2.100;2024-03-02T13:47:23;12.60;;;12.20;;
22068;SDS011;13887;57.196;-2.100;2024-03-02T13:49:51;11.97;;;11.57;;
22068;SDS011;13887;57.196;-2.100;2024-03-02T13:52:18;11.93;;;11.53;;
22068;SDS011;13887;57.196;-2.100;2024-03-02T13:54:47;12.77;;;12.37;;
22068;SDS011;13887;57.196;-2.100;2024-03-02T13:57:15;12.40;;;12.00;;
22068;SDS011;13887;57.196;-2.100;2024-03-02T13:59:43;12.37;;;11.97;;
22068;SDS011;13887;57.196;-2.100;2024-03-02T14:02:12;12.30;;;11.90;;
22068;SDS011;13887;57.196;-2.100;2024-03-02T14:04:39;11.57;;;11.17;;
22068;SDS011;13887;57.196;-2.100;2024-03-02T14:07:07;12.00;;;11.60;;
22068;SDS011;13887;57.196;-2.100;2024-03-02T14:09:35;12.30;;;11.90;;
22068;SDS011;13887;57.196;-2.100;2024-03-02T14:12:03;12.37;;;11.97;;
22068;SDS011;13887;57.196;-2.100;2024-03-02T14:14:32;12.50;;;12.10;;
22068;SDS011;13887;57.196;-2.100;2024-03-02T14:17:00;13.30;;;12.90;;
22068;SDS011;13887;57.196;-2.100;2024-03-02T14:19:30;12.70;;;12.30;;
22068;SDS011;13887;57.196;-2.100;2024-03-02T14:21:58;12.47;;;12.07;;
22068;SDS011;13887;57.196;-2.100;2024-03-02T14:24:26;13.00;;;12.60;;
22068;SDS011;13887;57.196;-2.100;2024-03-02T14:26:56;13.00;;;12.60;;
22068;SDS011;13887;57.196;-2.100;2024-03-02T14:29:45;13.30;;;12.90;;